Time;durP1;ratioP1;P1;durP2;ratioP2;P2;SDS_P1;SDS_P2;PMS_P1;PMS_P2;Temp;Humidity;BMP_temperature;BMP_pressure;BME280_temperature;BME280_humidity;BME280_pressure;Samples;Min_cycle;Max_cycle;Signal;HPM_P1;HPM_P2
2022/08/23 00:01:11;;;;;;;14.40;4.85;;;21.60;99.90;;;;;;5075179;28;20060;-68
2022/08/23 00:03:38;;;;;;;14.15;6.93;;;21.50;99.90;;;;;;5074493;28;20017;-68
2022/08/23 00:06:04;;;;;;;13.65;5.43;;;21.50;99.90;;;;;;5074753;28;20037;-67
2022/08/23 00:08:30;;;;;;;12.18;5.22;;;21.40;99.90;;;;;;5075071;28;20078;-67
2022/08/23 00:10:56;;;;;;;13.85;5.93;;;21.30;99.90;;;;;;5074753;28;20024;-67
2022/08/23 00:13:23;;;;;;;14.13;5.43;;;21.30;99.90;;;;;;5073376;28;20416;-67
2022/08/23 00:15:49;;;;;;;10.63;4.20;;;21.20;99.90;;;;;;5074851;28;20020;-69
2022/08/23 00:18:15;;;;;;;13.93;5.63;;;21.20;99.90;;;;;;5074619;28;20359;-68
2022/08/23 00:20:41;;;;;;;12.05;5.20;;;21.20;99.90;;;;;;5074483;28;20048;-68
2022/08/23 00:23:06;;;;;;;16.50;8.00;;;21.10;99.90;;;;;;5074461;28;20451;-68
2022/08/23 00:25:32;;;;;;;11.13;4.75;;;21.10;99.90;;;;;;5074533;28;20032;-67
2022/08/23 00:27:58;;;;;;;10.98;5.18;;;21.00;99.90;;;;;;5074208;28;20024;-70
2022/08/23 00:30:24;;;;;;;14.23;6.30;;;21.00;99.90;;;;;;5062364;28;20458;-68
2022/08/23 00:32:49;;;;;;;18.42;6.70;;;20.90;99.90;;;;;;5053942;28;20025;-67
2022/08/23 00:35:16;;;;;;;15.82;6.38;;;20.90;99.90;;;;;;5054001;28;20104;-68
2022/08/23 00:37:42;;;;;;;15.65;5.55;;;20.90;99.90;;;;;;5054326;28;20025;-69
2022/08/23 00:40:11;;;;;;;15.60;6.22;;;20.80;99.90;;;;;;5054331;28;20017;-66
2022/08/23 00:48:20;;;;;;;13.70;5.07;;;20.90;99.90;;;;;;5053872;28;20493;-67
2022/08/23 00:51:04;;;;;;;11.43;5.03;;;21.00;99.90;;;;;;5052314;28;20033;-67
2022/08/23 00:53:33;;;;;;;16.58;6.95;;;21.00;99.90;;;;;;5054207;28;20021;-70
2022/08/23 00:56:02;;;;;;;13.05;5.70;;;21.00;99.90;;;;;;5053597;28;20021;-68
2022/08/23 00:58:29;;;;;;;13.05;5.75;;;21.10;99.90;;;;;;5053914;28;20521;-70
2022/08/23 01:00:57;;;;;;;16.15;5.53;;;21.10;99.90;;;;;;5054185;28;20106;-67
2022/08/23 01:03:26;;;;;;;11.57;5.35;;;21.10;99.90;;;;;;5053747;28;20481;-68
2022/08/23 01:06:49;;;;;;;15.48;5.22;;;21.20;99.90;;;;;;5053235;28;20027;-68
2022/08/23 01:09:16;;;;;;;;;;;21.20;99.90;;;;;;5051618;28;20411;-69
2022/08/23 01:12:07;;;;;;;15.65;5.18;;;21.20;99.90;;;;;;5051483;28;19955;-67
2022/08/23 01:14:49;;;;;;;12.20;5.30;;;21.20;99.90;;;;;;5033609;28;20086;-68
2022/08/23 01:17:40;;;;;;;11.48;4.70;;;21.30;99.90;;;;;;5053093;28;20037;-67
2022/08/23 01:20:10;;;;;;;13.60;4.97;;;21.30;99.90;;;;;;5053044;28;20088;-67
2022/08/23 01:22:42;;;;;;;11.88;5.30;;;21.30;99.90;;;;;;5053485;28;20257;-70
2022/08/23 01:25:12;;;;;;;13.02;4.63;;;21.30;99.90;;;;;;5053106;28;20104;-70
2022/08/23 01:27:39;;;;;;;14.50;4.63;;;21.30;99.90;;;;;;5053379;28;20127;-70
2022/08/23 01:30:08;;;;;;;10.88;4.47;;;21.30;99.90;;;;;;5060749;28;20162;-67
2022/08/23 01:32:40;;;;;;;12.30;5.13;;;21.20;99.90;;;;;;5073268;28;20028;-67
2022/08/23 01:35:06;;;;;;;12.27;4.60;;;21.20;99.90;;;;;;5071782;28;20043;-67
2022/08/23 01:37:32;;;;;;;10.57;4.32;;;21.10;99.90;;;;;;5072354;28;20504;-69
2022/08/23 01:39:57;;;;;;;12.02;5.07;;;21.10;99.90;;;;;;5071821;28;20344;-67
2022/08/23 01:42:23;;;;;;;13.57;5.00;;;21.10;99.90;;;;;;5072895;28;20032;-67
2022/08/23 01:44:49;;;;;;;14.32;4.43;;;21.00;99.90;;;;;;5073448;28;20024;-67
2022/08/23 01:47:14;;;;;;;16.42;4.43;;;21.00;99.90;;;;;;5072989;28;20028;-69
2022/08/23 01:49:40;;;;;;;12.13;4.97;;;20.90;99.90;;;;;;5072777;28;20464;-68
2022/08/23 01:52:05;;;;;;;11.32;4.30;;;20.80;99.90;;;;;;5072855;28;20024;-68
2022/08/23 01:54:31;;;;;;;8.70;4.43;;;20.70;99.90;;;;;;5072950;28;20454;-68
2022/08/23 01:56:56;;;;;;;8.52;4.60;;;20.70;99.90;;;;;;5073081;28;20039;-69
2022/08/23 01:59:23;;;;;;;10.10;5.13;;;20.60;99.90;;;;;;5072779;28;20111;-68
2022/08/23 02:01:48;;;;;;;9.55;4.65;;;20.60;99.90;;;;;;5073164;28;20016;-68
2022/08/23 02:04:14;;;;;;;14.93;5.10;;;20.60;99.90;;;;;;5072281;28;20020;-69
2022/08/23 02:06:39;;;;;;;13.23;5.25;;;20.50;99.90;;;;;;5071315;28;20024;-67
2022/08/23 02:09:05;;;;;;;10.70;5.25;;;20.50;99.90;;;;;;5072044;28;20024;-67
2022/08/23 02:11:35;;;;;;;12.82;5.35;;;20.40;99.90;;;;;;5072730;28;20031;-67
2022/08/23 02:14:04;;;;;;;14.70;6.40;;;20.40;99.90;;;;;;5072717;28;20021;-66
2022/08/23 02:16:36;;;;;;;13.45;6.25;;;20.30;99.90;;;;;;5072527;28;20455;-67
2022/08/23 02:19:09;;;;;;;15.23;5.82;;;20.30;99.90;;;;;;5072903;28;20020;-70
2022/08/23 02:21:36;;;;;;;13.18;6.43;;;20.30;99.90;;;;;;5072770;28;20107;-70
2022/08/23 02:24:11;;;;;;;9.27;5.35;;;20.30;99.90;;;;;;5071419;28;20366;-68
2022/08/23 02:26:39;;;;;;;14.30;6.65;;;20.30;99.90;;;;;;5072691;28;20033;-67
2022/08/23 02:29:06;;;;;;;12.18;5.93;;;20.40;99.90;;;;;;5072832;28;20070;-70
2022/08/23 02:31:32;;;;;;;14.18;5.60;;;20.40;99.90;;;;;;5052118;28;20025;-68
2022/08/23 02:33:59;;;;;;;13.75;6.35;;;20.50;99.90;;;;;;5052202;28;20032;-69
2022/08/23 02:36:25;;;;;;;14.20;6.35;;;20.50;99.90;;;;;;5052940;28;20040;-70
2022/08/23 02:38:52;;;;;;;12.88;5.85;;;20.50;99.90;;;;;;5052370;28;20159;-69
2022/08/23 02:41:17;;;;;;;12.02;6.18;;;20.50;99.90;;;;;;5050960;28;20112;-68
2022/08/23 02:43:49;;;;;;;15.27;5.80;;;20.60;99.90;;;;;;5052417;28;20480;-67
2022/08/23 02:46:15;;;;;;;11.25;6.28;;;20.60;99.90;;;;;;5052430;28;20470;-70
2022/08/23 02:48:41;;;;;;;13.98;5.80;;;20.60;99.90;;;;;;5052172;28;20045;-68
2022/08/23 02:51:08;;;;;;;12.70;5.93;;;20.60;99.90;;;;;;5052295;28;20028;-69
2022/08/23 02:53:35;;;;;;;13.88;6.45;;;20.60;99.90;;;;;;5052471;28;20029;-66
2022/08/23 02:56:01;;;;;;;13.20;5.82;;;20.60;99.90;;;;;;5052281;28;20392;-66
2022/08/23 02:58:27;;;;;;;13.77;5.70;;;20.60;99.90;;;;;;5050730;28;20416;-67
2022/08/23 03:00:52;;;;;;;12.55;5.75;;;20.70;99.90;;;;;;5052192;28;20060;-68
2022/08/23 03:03:20;;;;;;;16.48;6.38;;;20.70;99.90;;;;;;5051907;28;20049;-69
2022/08/23 03:05:46;;;;;;;13.40;6.95;;;20.70;99.90;;;;;;5052191;28;20435;-70
2022/08/23 03:08:11;;;;;;;12.05;6.57;;;20.70;99.90;;;;;;5052040;28;20033;-66
2022/08/23 03:10:41;;;;;;;14.52;7.05;;;20.70;99.90;;;;;;5052231;28;20124;-67
2022/08/23 03:13:08;;;;;;;14.52;6.28;;;20.70;99.90;;;;;;5052618;28;20124;-70
2022/08/23 03:15:34;;;;;;;16.80;6.82;;;20.70;99.90;;;;;;5055233;28;20116;-67
2022/08/23 03:18:00;;;;;;;17.67;6.75;;;20.80;99.90;;;;;;5055737;28;20021;-67
2022/08/23 03:20:26;;;;;;;18.25;7.07;;;20.80;99.90;;;;;;5055812;28;20021;-66
2022/08/23 03:22:51;;;;;;;14.13;6.90;;;20.80;99.90;;;;;;5056354;28;20454;-68
2022/08/23 03:25:17;;;;;;;13.32;6.30;;;20.80;99.90;;;;;;5055428;28;20033;-68
2022/08/23 03:27:42;;;;;;;13.52;6.18;;;20.80;99.90;;;;;;5055612;28;20021;-67
2022/08/23 03:30:08;;;;;;;11.13;6.20;;;20.90;99.90;;;;;;5063652;28;20020;-67
2022/08/23 03:32:34;;;;;;;12.38;6.53;;;20.90;99.90;;;;;;5075507;28;20024;-67
2022/08/23 03:35:00;;;;;;;15.02;6.97;;;20.90;99.90;;;;;;5075221;28;20017;-69
2022/08/23 03:37:26;;;;;;;12.77;6.78;;;20.90;99.90;;;;;;5075370;28;20518;-68
2022/08/23 03:39:51;;;;;;;14.65;7.22;;;20.90;99.90;;;;;;5075145;28;20028;-68
2022/08/23 03:42:18;;;;;;;15.88;6.80;;;20.90;99.90;;;;;;5075033;28;20035;-68
2022/08/23 03:44:44;;;;;;;14.70;6.40;;;20.90;99.90;;;;;;5074932;28;20024;-65
2022/08/23 03:47:09;;;;;;;18.55;7.00;;;20.90;99.90;;;;;;5075294;28;20009;-68
2022/08/23 03:49:36;;;;;;;15.48;7.20;;;21.00;99.90;;;;;;5075204;28;20028;-67
2022/08/23 03:52:03;;;;;;;12.48;6.93;;;21.00;99.90;;;;;;5075106;28;20062;-67
2022/08/23 03:54:28;;;;;;;19.23;8.20;;;21.00;99.90;;;;;;5075442;28;20086;-67
2022/08/23 03:56:59;;;;;;;14.73;7.47;;;21.00;99.90;;;;;;5075379;28;20032;-67
2022/08/23 03:59:26;;;;;;;15.00;7.55;;;21.00;99.90;;;;;;5075012;28;20045;-67
2022/08/23 04:01:51;;;;;;;13.93;7.00;;;21.00;99.90;;;;;;5075202;28;20020;-67
2022/08/23 04:04:17;;;;;;;13.60;6.38;;;21.00;99.90;;;;;;5074899;28;20515;-69
2022/08/23 04:06:44;;;;;;;15.88;7.00;;;21.00;99.90;;;;;;5075227;28;20030;-66
2022/08/23 04:09:10;;;;;;;14.20;6.95;;;21.00;99.90;;;;;;5075098;28;20032;-67
2022/08/23 04:11:36;;;;;;;15.43;6.68;;;21.00;99.90;;;;;;5074596;28;20059;-69
2022/08/23 04:14:01;;;;;;;18.27;7.22;;;21.00;99.90;;;;;;5074773;28;20056;-67
2022/08/23 04:16:29;;;;;;;18.60;7.38;;;21.00;99.90;;;;;;5074391;28;20033;-67
2022/08/23 04:18:54;;;;;;;15.88;7.63;;;21.00;99.90;;;;;;5075045;28;20052;-69
2022/08/23 04:21:22;;;;;;;11.88;7.00;;;21.00;99.90;;;;;;5074729;28;20059;-68
2022/08/23 04:23:48;;;;;;;15.93;7.03;;;21.00;99.90;;;;;;5074498;28;20016;-67
2022/08/23 04:26:13;;;;;;;15.43;7.03;;;21.00;99.90;;;;;;5073442;28;20416;-68
2022/08/23 04:28:39;;;;;;;16.35;7.45;;;20.90;99.90;;;;;;5074537;28;20031;-67
2022/08/23 04:31:05;;;;;;;17.45;8.02;;;21.00;99.90;;;;;;5074447;28;20032;-67
2022/08/23 04:33:32;;;;;;;13.30;7.50;;;21.00;99.90;;;;;;5074074;28;20077;-69
2022/08/23 04:35:59;;;;;;;16.70;7.43;;;21.00;99.90;;;;;;5074297;28;20069;-68
2022/08/23 04:38:24;;;;;;;18.70;7.20;;;21.00;99.90;;;;;;5074464;28;20024;-69
2022/08/23 04:43:34;;;;;;;14.25;6.97;;;21.00;99.90;;;;;;5064498;28;20385;-67
2022/08/23 04:46:02;;;;;;;19.60;8.07;;;21.00;99.90;;;;;;5072798;28;20541;-69
2022/08/23 04:48:28;;;;;;;15.10;6.75;;;20.90;99.90;;;;;;5072716;28;20020;-68
2022/08/23 04:50:53;;;;;;;15.93;7.47;;;20.90;99.90;;;;;;5072597;28;20118;-67
2022/08/23 04:53:19;;;;;;;15.90;7.70;;;20.90;99.90;;;;;;5069536;28;20089;-67
2022/08/23 04:55:45;;;;;;;14.80;7.40;;;20.80;99.90;;;;;;5072423;28;20036;-71
2022/08/23 04:58:11;;;;;;;14.88;8.30;;;20.70;99.90;;;;;;5072404;28;20347;-70
2022/08/23 05:00:36;;;;;;;17.33;8.95;;;20.70;99.90;;;;;;5072498;28;20025;-67
2022/08/23 05:03:02;;;;;;;15.68;7.65;;;20.70;99.90;;;;;;5073009;28;20016;-67
2022/08/23 05:05:27;;;;;;;16.35;8.00;;;20.70;99.90;;;;;;5073326;28;20438;-67
2022/08/23 05:07:54;;;;;;;18.35;8.45;;;20.70;99.90;;;;;;5071963;28;20107;-71
2022/08/23 05:10:19;;;;;;;15.63;8.18;;;20.70;99.90;;;;;;5069533;28;20028;-71
2022/08/23 05:12:46;;;;;;;18.42;8.02;;;20.70;99.90;;;;;;5072786;28;20443;-68
2022/08/23 05:15:11;;;;;;;16.10;8.30;;;20.80;99.90;;;;;;5072539;28;20020;-66
2022/08/23 05:17:37;;;;;;;16.67;7.95;;;20.80;99.90;;;;;;5072478;28;20359;-72
2022/08/23 05:20:05;;;;;;;18.33;8.35;;;20.90;99.90;;;;;;5072519;28;20013;-69
2022/08/23 05:22:39;;;;;;;16.40;7.55;;;20.90;99.90;;;;;;5071938;28;20435;-69
2022/08/23 05:25:05;;;;;;;12.20;7.38;;;21.00;99.90;;;;;;5070168;28;20027;-70
2022/08/23 05:27:31;;;;;;;13.50;7.60;;;21.00;99.90;;;;;;5072832;28;20054;-68
2022/08/23 05:29:57;;;;;;;20.20;8.70;;;21.10;99.90;;;;;;5071040;28;20017;-68
2022/08/23 05:32:23;;;;;;;14.20;7.85;;;21.20;99.90;;;;;;5072331;28;20515;-69
2022/08/23 05:34:49;;;;;;;15.57;7.95;;;21.30;99.90;;;;;;5072326;28;20017;-70
2022/08/23 05:37:15;;;;;;;17.75;7.95;;;21.30;99.90;;;;;;5071751;28;20040;-70
2022/08/23 05:39:41;;;;;;;18.25;8.23;;;21.40;99.90;;;;;;5072205;28;20046;-70
2022/08/23 05:42:09;;;;;;;17.10;8.07;;;21.50;99.90;;;;;;5072145;28;20012;-67
2022/08/23 05:44:36;;;;;;;23.20;9.45;;;21.50;99.90;;;;;;5071632;28;20029;-69
2022/08/23 05:47:03;;;;;;;21.83;8.07;;;21.60;99.90;;;;;;5072141;28;20163;-67
2022/08/23 05:49:28;;;;;;;17.85;6.75;;;21.70;99.90;;;;;;5072221;28;20082;-68
2022/08/23 05:51:54;;;;;;;20.50;7.82;;;21.80;99.90;;;;;;5071762;28;20111;-68
2022/08/23 05:54:20;;;;;;;17.55;6.80;;;21.80;99.90;;;;;;5071825;28;20016;-71
2022/08/23 05:56:45;;;;;;;17.27;7.65;;;21.80;99.90;;;;;;5071519;28;20047;-71
2022/08/23 05:59:14;;;;;;;14.38;7.22;;;21.80;99.90;;;;;;5071965;28;20123;-70
2022/08/23 06:01:41;;;;;;;15.27;7.00;;;21.80;99.90;;;;;;5072405;28;20016;-66
2022/08/23 06:04:10;;;;;;;19.48;7.93;;;21.70;99.90;;;;;;5071596;28;20019;-69
2022/08/23 06:06:37;;;;;;;15.20;7.65;;;21.70;99.90;;;;;;5071661;28;20020;-68
2022/08/23 06:09:05;;;;;;;13.60;6.75;;;21.70;99.90;;;;;;5071785;28;20017;-67
2022/08/23 06:11:31;;;;;;;15.52;7.53;;;21.70;99.90;;;;;;5071468;28;20027;-67
2022/08/23 06:13:59;;;;;;;17.42;7.93;;;21.70;99.90;;;;;;5071871;28;20009;-67
2022/08/23 06:16:30;;;;;;;15.68;6.70;;;21.70;99.90;;;;;;5071296;28;20374;-69
2022/08/23 06:18:57;;;;;;;21.63;9.68;;;21.70;99.90;;;;;;5071051;28;20029;-67
2022/08/23 06:21:24;;;;;;;27.58;12.07;;;21.80;99.90;;;;;;5071348;28;20091;-67
2022/08/23 06:23:50;;;;;;;21.38;8.35;;;21.80;99.90;;;;;;5068850;28;20019;-68
2022/08/23 06:26:26;;;;;;;17.70;8.30;;;21.80;99.90;;;;;;5071349;28;20037;-67
2022/08/23 06:28:54;;;;;;;20.50;7.00;;;21.90;99.90;;;;;;5071610;28;20023;-67
2022/08/23 06:34:07;;;;;;;14.25;7.10;;;22.00;99.90;;;;;;5069780;28;20031;-66
2022/08/23 06:36:33;;;;;;;18.80;7.22;;;22.00;99.90;;;;;;5066202;28;20041;-68
2022/08/23 06:38:58;;;;;;;14.93;7.43;;;22.20;99.90;;;;;;5070385;28;20378;-67
2022/08/23 06:41:24;;;;;;;15.27;7.28;;;22.30;99.90;;;;;;5071554;28;20017;-67
2022/08/23 06:43:50;;;;;;;14.48;6.97;;;22.50;99.90;;;;;;5070944;28;20025;-67
2022/08/23 06:46:20;;;;;;;18.95;6.75;;;22.70;99.90;;;;;;5071360;28;20466;-67
2022/08/23 06:48:46;;;;;;;13.00;6.45;;;23.00;99.90;;;;;;5070049;28;20024;-71
2022/08/23 06:51:13;;;;;;;14.85;6.05;;;23.40;99.90;;;;;;5075428;28;20024;-68
2022/08/23 06:53:39;;;;;;;11.05;5.82;;;23.90;99.90;;;;;;5075080;28;20016;-67
2022/08/23 06:56:05;;;;;;;16.58;6.13;;;24.20;99.90;;;;;;5075252;28;20415;-69
2022/08/23 06:58:31;;;;;;;14.02;6.53;;;24.70;99.90;;;;;;5074469;28;20500;-67
2022/08/23 07:01:28;;;;;;;17.67;7.43;;;25.20;99.70;;;;;;5074060;28;20066;-69
2022/08/23 07:03:54;;;;;;;15.10;6.20;;;25.90;98.90;;;;;;5065772;28;20040;-68
2022/08/23 07:06:24;;;;;;;15.20;5.45;;;26.70;97.90;;;;;;5074640;28;20024;-69
2022/08/23 07:08:50;;;;;;;11.45;5.43;;;27.30;97.20;;;;;;5074701;28;20038;-67
2022/08/23 07:11:16;;;;;;;14.00;4.60;;;27.80;96.20;;;;;;5074769;28;20158;-67
2022/08/23 07:13:42;;;;;;;12.63;5.20;;;28.20;95.80;;;;;;5074135;28;20099;-67
2022/08/23 07:16:08;;;;;;;19.30;7.18;;;28.50;95.60;;;;;;5074668;28;20033;-67
2022/08/23 07:18:33;;;;;;;14.00;4.80;;;28.70;95.40;;;;;;5074969;28;20024;-67
2022/08/23 07:21:01;;;;;;;9.48;4.05;;;28.90;95.30;;;;;;5067303;28;20018;-68
2022/08/23 07:23:32;;;;;;;10.82;4.10;;;28.90;95.20;;;;;;5074058;28;20108;-66
2022/08/23 07:26:01;;;;;;;11.35;4.15;;;28.60;95.60;;;;;;5074211;28;20370;-67
2022/08/23 07:28:28;;;;;;;10.70;3.78;;;28.20;96.20;;;;;;5074540;28;20008;-67
2022/08/23 07:31:04;;;;;;;3.83;2.85;;;27.90;96.70;;;;;;5074773;28;20082;-67
2022/08/23 07:33:30;;;;;;;7.32;2.65;;;27.60;96.80;;;;;;5073000;28;20098;-70
2022/08/23 07:35:56;;;;;;;6.35;2.80;;;27.50;97.30;;;;;;5074210;28;20028;-67
2022/08/23 07:38:21;;;;;;;10.20;2.83;;;27.50;97.70;;;;;;5075486;28;20085;-67
2022/08/23 07:40:47;;;;;;;9.07;3.22;;;27.50;97.40;;;;;;5075604;28;20095;-70
2022/08/23 07:43:13;;;;;;;7.35;3.17;;;27.40;97.70;;;;;;5074358;28;20060;-67
2022/08/23 07:45:39;;;;;;;9.82;6.38;;;27.50;98.00;;;;;;5075881;28;20048;-67
2022/08/23 07:48:05;;;;;;;9.10;2.65;;;27.80;97.80;;;;;;5075271;28;20348;-67
2022/08/23 07:50:31;;;;;;;9.23;2.58;;;28.40;97.40;;;;;;5075555;28;20074;-69
2022/08/23 07:52:57;;;;;;;4.90;2.00;;;29.20;96.50;;;;;;5074997;28;20028;-66
2022/08/23 07:55:23;;;;;;;9.32;2.70;;;30.00;95.60;;;;;;5075498;28;20447;-70
2022/08/23 07:57:48;;;;;;;6.47;2.10;;;30.90;94.60;;;;;;5075251;28;20039;-70
2022/08/23 08:00:14;;;;;;;4.82;1.80;;;31.60;93.50;;;;;;5074612;28;20079;-68
2022/08/23 08:02:40;;;;;;;5.00;1.48;;;32.40;92.40;;;;;;5074659;28;20023;-68
2022/08/23 08:05:06;;;;;;;5.25;1.50;;;33.10;91.60;;;;;;5074236;28;20017;-67
2022/08/23 08:07:32;;;;;;;7.07;1.70;;;33.80;90.40;;;;;;5074112;28;20374;-67
2022/08/23 08:09:58;;;;;;;5.80;1.67;;;34.70;89.50;;;;;;5075353;28;20028;-68
2022/08/23 08:12:23;;;;;;;5.70;2.05;;;35.50;88.00;;;;;;5074889;28;20021;-67
2022/08/23 08:14:49;;;;;;;4.68;1.92;;;36.40;85.30;;;;;;5074768;28;20025;-68
2022/08/23 08:17:17;;;;;;;7.32;1.63;;;37.20;82.90;;;;;;5074343;28;20024;-70
2022/08/23 08:19:42;;;;;;;4.78;1.48;;;38.20;80.80;;;;;;5075101;28;20081;-68
2022/08/23 08:22:08;;;;;;;5.18;1.63;;;39.00;78.40;;;;;;5075164;28;20017;-67
2022/08/23 08:24:34;;;;;;;10.13;2.70;;;39.50;75.90;;;;;;5074918;28;20154;-67
2022/08/23 08:26:59;;;;;;;3.85;1.65;;;39.90;74.30;;;;;;5074476;28;20027;-66
2022/08/23 08:29:26;;;;;;;5.32;1.75;;;40.30;72.10;;;;;;5075012;28;20025;-67
2022/08/23 08:31:52;;;;;;;3.90;1.45;;;40.70;71.10;;;;;;5075186;28;20029;-69
2022/08/23 08:34:17;;;;;;;2.65;1.20;;;41.20;69.80;;;;;;5074683;28;20043;-67
2022/08/23 08:36:48;;;;;;;4.30;1.45;;;41.60;68.40;;;;;;5074351;28;20060;-68
2022/08/23 08:39:18;;;;;;;7.00;2.35;;;41.50;67.80;;;;;;5074268;28;20565;-67
2022/08/23 08:42:11;;;;;;;12.37;4.03;;;41.40;67.50;;;;;;5074586;28;20074;-68
2022/08/23 08:44:45;;;;;;;9.68;2.15;;;41.20;66.90;;;;;;5074450;28;20104;-67
2022/08/23 08:47:29;;;;;;;6.18;2.47;;;41.10;66.70;;;;;;5074535;28;20046;-67
2022/08/23 08:50:07;;;;;;;5.57;1.83;;;40.90;66.90;;;;;;5074422;28;20365;-67
2022/08/23 08:52:42;;;;;;;4.70;1.48;;;40.40;67.10;;;;;;5073901;28;20103;-67
2022/08/23 08:55:13;;;;;;;8.40;2.13;;;39.50;68.00;;;;;;5074331;28;20028;-69
2022/08/23 08:57:45;;;;;;;7.63;2.10;;;38.70;69.40;;;;;;5074527;28;20032;-68
2022/08/23 09:00:21;;;;;;;5.13;1.67;;;37.80;70.60;;;;;;5074390;28;20485;-67
2022/08/23 09:02:46;;;;;;;3.22;1.30;;;37.00;71.70;;;;;;5074319;28;20100;-70
2022/08/23 09:05:25;;;;;;;5.85;1.52;;;36.40;72.60;;;;;;5073921;28;20170;-67
2022/08/23 09:08:28;;;;;;;7.97;1.73;;;35.90;73.60;;;;;;5074058;28;20111;-69
2022/08/23 09:11:20;;;;;;;5.88;1.42;;;35.70;73.90;;;;;;5074512;28;20383;-68
2022/08/23 09:14:01;;;;;;;2.83;1.15;;;36.40;73.70;;;;;;5073382;28;20016;-67
2022/08/23 09:16:47;;;;;;;4.93;1.88;;;37.80;71.70;;;;;;5073785;28;20029;-67
2022/08/23 09:19:13;;;;;;;5.75;2.10;;;39.40;69.50;;;;;;5074029;28;20206;-67
2022/08/23 09:22:08;;;;;;;4.68;1.98;;;40.40;67.10;;;;;;5073705;28;20130;-68
2022/08/23 09:24:33;;;;;;;3.33;1.77;;;39.90;67.30;;;;;;5074109;28;20114;-68
2022/08/23 09:26:59;;;;;;;5.97;1.60;;;39.30;67.40;;;;;;5073845;28;20048;-67
2022/08/23 09:29:35;;;;;;;3.35;1.30;;;38.60;67.90;;;;;;5073166;28;20104;-67
2022/08/23 09:32:04;;;;;;;5.57;1.50;;;38.00;68.70;;;;;;5073855;28;20021;-67
2022/08/23 09:34:36;;;;;;;3.85;1.50;;;37.20;69.80;;;;;;5073642;28;20438;-67
2022/08/23 09:37:24;;;;;;;;;;;36.50;71.00;;;;;;5073890;28;20114;-69
2022/08/23 09:40:14;;;;;;;3.38;1.42;;;35.90;71.90;;;;;;5073667;28;19900;-70
2022/08/23 09:42:40;;;;;;;3.38;1.20;;;35.20;73.20;;;;;;5073718;28;20024;-68
2022/08/23 09:45:30;;;;;;;4.40;1.40;;;34.80;74.70;;;;;;5072948;28;20027;-70
2022/08/23 09:47:56;;;;;;;4.80;1.30;;;34.40;74.50;;;;;;5073551;28;20032;-70
2022/08/23 09:50:26;;;;;;;5.15;1.10;;;34.30;75.20;;;;;;5073007;28;20036;-68
2022/08/23 09:52:57;;;;;;;4.30;1.52;;;34.50;75.20;;;;;;5073317;28;20025;-68
2022/08/23 09:55:36;;;;;;;2.88;1.30;;;34.90;75.60;;;;;;5073437;28;20082;-69
2022/08/23 09:58:06;;;;;;;2.33;1.30;;;35.30;74.60;;;;;;5073332;28;20029;-66
2022/08/23 10:00:34;;;;;;;3.03;1.25;;;35.60;74.10;;;;;;5061815;28;20036;-69
2022/08/23 10:03:26;;;;;;;4.95;1.50;;;35.80;73.90;;;;;;5068051;28;20023;-67
2022/08/23 10:05:55;;;;;;;3.50;1.05;;;36.10;73.60;;;;;;5052944;28;20028;-67
2022/08/23 10:08:33;;;;;;;6.07;1.35;;;36.30;73.10;;;;;;5065409;28;20024;-67
2022/08/23 10:11:28;;;;;;;7.10;1.25;;;36.40;73.00;;;;;;5073216;28;20043;-68
2022/08/23 10:13:54;;;;;;;4.25;1.50;;;36.40;72.80;;;;;;5071705;28;20059;-67
2022/08/23 10:16:38;;;;;;;6.03;1.38;;;36.20;73.40;;;;;;5072592;28;20393;-67
2022/08/23 10:19:09;;;;;;;4.38;1.30;;;36.00;73.80;;;;;;5073100;28;20104;-68
2022/08/23 10:22:02;;;;;;;3.65;1.63;;;35.80;74.00;;;;;;5073236;28;20480;-68
2022/08/23 10:24:43;;;;;;;4.28;1.48;;;35.70;74.30;;;;;;5072116;28;20446;-67
2022/08/23 10:30:11;;;;;;;5.18;1.75;;;35.70;74.40;;;;;;5072993;28;20036;-68
2022/08/23 10:32:51;;;;;;;4.72;1.35;;;35.70;75.00;;;;;;5070133;28;20020;-67
2022/08/23 10:35:42;;;;;;;5.20;1.30;;;35.80;74.50;;;;;;5053051;28;20033;-68
2022/08/23 10:38:40;;;;;;;3.17;1.20;;;36.30;74.20;;;;;;5053061;28;20474;-68
2022/08/23 10:41:42;;;;;;;3.80;1.42;;;36.70;73.50;;;;;;5052679;28;20382;-67
2022/08/23 10:44:19;;;;;;;;;;;37.20;72.90;;;;;;5053159;28;20402;-66
2022/08/23 10:46:59;;;;;;;3.42;1.10;;;37.40;71.70;;;;;;5052338;28;20258;-67
2022/08/23 10:49:27;;;;;;;1.83;1.17;;;37.60;71.80;;;;;;5052642;28;20477;-68
2022/08/23 10:51:54;;;;;;;6.82;1.70;;;38.20;71.20;;;;;;5052485;28;20021;-67
2022/08/23 10:54:45;;;;;;;3.80;1.30;;;38.90;69.80;;;;;;5052486;28;20025;-68
2022/08/23 10:57:14;;;;;;;4.00;1.40;;;39.70;68.60;;;;;;5052334;28;20047;-67
2022/08/23 10:59:41;;;;;;;3.97;1.15;;;40.80;66.90;;;;;;5052248;28;20040;-67
2022/08/23 11:02:24;;;;;;;2.80;1.40;;;41.40;66.30;;;;;;5062940;28;20040;-69
2022/08/23 11:05:05;;;;;;;4.63;1.83;;;42.30;64.70;;;;;;5072460;28;20097;-66
2022/08/23 11:07:33;;;;;;;4.55;1.60;;;42.30;63.30;;;;;;5072867;28;20044;-67
2022/08/23 11:10:29;;;;;;;4.00;1.67;;;41.50;64.50;;;;;;5072382;28;20150;-69
2022/08/23 11:13:15;;;;;;;6.80;2.08;;;41.90;63.90;;;;;;5072423;28;20028;-68
2022/08/23 11:15:45;;;;;;;8.57;2.30;;;43.00;62.30;;;;;;5072317;28;20032;-67
2022/08/23 11:18:35;;;;;;;3.90;1.80;;;43.40;61.40;;;;;;5072458;28;20158;-65
2022/08/23 11:21:10;;;;;;;5.30;2.08;;;42.80;61.10;;;;;;5072513;28;20056;-67
2022/08/23 11:23:54;;;;;;;6.30;2.83;;;42.50;61.40;;;;;;5072426;28;20029;-69
2022/08/23 11:26:26;;;;;;;5.90;2.40;;;42.40;61.20;;;;;;5072480;28;20098;-67
2022/08/23 11:28:53;;;;;;;5.40;1.50;;;42.00;61.40;;;;;;5072343;28;20451;-67
2022/08/23 11:31:28;;;;;;;5.43;1.42;;;41.40;62.60;;;;;;5072019;28;20020;-69
2022/08/23 11:34:05;;;;;;;5.28;1.23;;;40.50;63.60;;;;;;5072129;28;20034;-68
2022/08/23 11:36:33;;;;;;;3.55;1.65;;;39.30;65.10;;;;;;5075082;28;20085;-67
2022/08/23 11:39:03;;;;;;;2.58;1.20;;;38.30;66.40;;;;;;5075794;28;20028;-67
2022/08/23 11:41:55;;;;;;;3.92;1.60;;;37.40;67.70;;;;;;5075907;28;20020;-67
2022/08/23 11:44:33;;;;;;;4.30;1.27;;;36.50;69.50;;;;;;5075174;28;20027;-67
2022/08/23 11:47:02;;;;;;;4.63;1.48;;;36.10;70.20;;;;;;5075752;28;20021;-67
2022/08/23 11:49:28;;;;;;;6.53;1.60;;;35.60;70.80;;;;;;5062224;28;20094;-67
2022/08/23 11:52:12;;;;;;;4.32;1.20;;;35.10;71.80;;;;;;5069587;28;20296;-67
2022/08/23 11:55:05;;;;;;;4.35;1.42;;;34.50;72.60;;;;;;5075365;28;20469;-66
2022/08/23 11:58:11;;;;;;;3.33;1.35;;;33.90;73.80;;;;;;5075588;28;20045;-68
2022/08/23 12:00:49;;;;;;;6.47;1.65;;;33.50;75.20;;;;;;5075146;28;20119;-67
2022/08/23 12:03:32;;;;;;;4.43;1.90;;;34.10;75.50;;;;;;5075529;28;20091;-69
2022/08/23 12:06:19;;;;;;;4.55;1.73;;;35.20;73.40;;;;;;5075026;28;20024;-68
2022/08/23 12:08:49;;;;;;;3.95;1.65;;;36.20;71.80;;;;;;5075081;28;20016;-69
2022/08/23 12:11:17;;;;;;;6.00;1.80;;;37.20;70.10;;;;;;5074974;28;20082;-68
2022/08/23 12:13:47;;;;;;;5.57;1.48;;;37.90;69.90;;;;;;5075107;28;20395;-68
2022/08/23 12:16:13;;;;;;;5.40;1.40;;;38.30;68.40;;;;;;5075081;28;20040;-67
2022/08/23 12:18:53;;;;;;;3.08;1.52;;;38.60;68.10;;;;;;5075197;28;20099;-69
2022/08/23 12:21:44;;;;;;;5.50;1.52;;;38.80;67.70;;;;;;5074594;28;20016;-67
2022/08/23 12:24:30;;;;;;;4.20;1.42;;;39.00;67.10;;;;;;5075157;28;20020;-67
2022/08/23 12:27:25;;;;;;;3.53;1.60;;;39.30;66.60;;;;;;5073564;28;20029;-68
2022/08/23 12:29:55;;;;;;;3.17;1.52;;;39.60;65.80;;;;;;5074557;28;20020;-67
2022/08/23 12:32:34;;;;;;;5.03;2.08;;;39.90;65.20;;;;;;5074007;28;20017;-66
2022/08/23 12:35:12;;;;;;;4.38;1.52;;;39.90;64.70;;;;;;5074348;28;20024;-66
2022/08/23 12:37:57;;;;;;;4.65;1.80;;;39.70;65.10;;;;;;5074596;28;20036;-68
2022/08/23 12:40:37;;;;;;;5.68;2.00;;;39.80;64.70;;;;;;5074268;28;20513;-67
2022/08/23 12:43:10;;;;;;;6.93;1.97;;;39.70;64.50;;;;;;5074636;28;20064;-67
2022/08/23 12:45:59;;;;;;;6.15;2.25;;;39.60;64.70;;;;;;5074409;28;20024;-67
2022/08/23 12:48:32;;;;;;;4.50;1.83;;;39.30;64.80;;;;;;5073606;28;20024;-67
2022/08/23 12:51:07;;;;;;;6.32;1.88;;;39.00;65.30;;;;;;5074955;28;20029;-71
2022/08/23 12:53:39;;;;;;;6.95;2.00;;;38.60;65.50;;;;;;5074457;28;20102;-67
2022/08/23 12:56:18;;;;;;;3.88;1.77;;;38.20;66.10;;;;;;5074533;28;20496;-68
2022/08/23 12:58:50;;;;;;;5.38;1.92;;;37.80;66.70;;;;;;5073867;28;20490;-67
2022/08/23 13:01:27;;;;;;;7.53;1.80;;;37.40;66.90;;;;;;5074253;28;20020;-66
2022/08/23 13:04:01;;;;;;;5.97;1.85;;;36.90;66.90;;;;;;5074056;28;20025;-68
2022/08/23 13:06:46;;;;;;;5.88;2.70;;;36.40;67.60;;;;;;5074037;28;20028;-67
2022/08/23 13:09:23;;;;;;;5.72;2.83;;;35.80;68.30;;;;;;5073836;28;20021;-70
2022/08/23 13:11:49;;;;;;;6.25;2.35;;;35.30;68.90;;;;;;5073774;28;20031;-69
2022/08/23 13:14:45;;;;;;;6.22;2.15;;;34.90;69.60;;;;;;5073654;28;20025;-68
2022/08/23 13:17:31;;;;;;;5.03;2.28;;;34.40;70.40;;;;;;5072793;28;20055;-65